Time;durP1;ratioP1;P1;durP2;ratioP2;P2;SDS_P1;SDS_P2;PMS_P1;PMS_P2;Temp;Humidity;BMP_temperature;BMP_pressure;BME280_temperature;BME280_humidity;BME280_pressure;Samples;Min_cycle;Max_cycle;Signal;HPM_P1;HPM_P2
2023/04/17 00:02:10;;;;;;;30.80;21.30;;;;;;;7.91;78.56;98922.64;225779;1275;22590;-77
2023/04/17 00:07:13;;;;;;;29.00;20.90;;;;;;;7.88;78.76;98922.64;225722;1278;22549;-77
2023/04/17 00:12:15;;;;;;;26.20;19.20;;;;;;;7.85;79.21;98922.84;225922;1278;22535;-76
2023/04/17 00:17:17;;;;;;;30.70;22.30;;;;;;;7.81;79.03;98919.32;225703;1277;22531;-76
2023/04/17 00:22:20;;;;;;;32.50;21.90;;;;;;;7.79;79.13;98913.79;225938;1277;24239;-77
2023/04/17 00:27:22;;;;;;;29.30;20.40;;;;;;;7.76;78.95;98916.55;225710;1278;23093;-77
2023/04/17 00:32:24;;;;;;;29.60;19.60;;;;;;;7.73;79.42;98915.31;226004;1272;22540;-77
2023/04/17 00:37:26;;;;;;;28.80;18.80;;;;;;;7.71;79.51;98919.20;225962;1278;22608;-77
2023/04/17 00:42:28;;;;;;;26.80;17.30;;;;;;;7.67;79.20;98917.23;225702;1278;22665;-77
2023/04/17 00:47:31;;;;;;;27.60;18.10;;;;;;;7.61;79.72;98923.30;225920;1276;22552;-77
2023/04/17 00:52:33;;;;;;;20.70;16.30;;;;;;;7.56;79.69;98925.63;225863;1275;22541;-76
2023/04/17 00:57:36;;;;;;;18.80;14.40;;;;;;;7.49;79.70;98925.09;225724;1275;24120;-76
2023/04/17 01:02:38;;;;;;;18.50;15.00;;;;;;;7.42;79.74;98923.52;225945;1276;22644;-76
2023/04/17 01:07:42;;;;;;;17.30;14.30;;;;;;;7.37;79.91;98927.85;225888;1272;22544;-77
2023/04/17 01:12:48;;;;;;;19.00;15.30;;;;;;;7.32;80.32;98932.15;225926;1276;22534;-76
2023/04/17 01:17:51;;;;;;;20.60;16.50;;;;;;;7.27;80.30;98936.39;225761;1278;22553;-77
2023/04/17 01:22:53;;;;;;;21.20;17.30;;;;;;;7.20;80.44;98934.77;225987;1276;22530;-77
2023/04/17 01:27:55;;;;;;;20.60;16.60;;;;;;;7.12;80.51;98931.19;225676;1278;22563;-76
2023/04/17 01:32:59;;;;;;;20.10;16.70;;;;;;;7.06;80.76;98933.77;225864;1278;24436;-76
2023/04/17 01:38:03;;;;;;;21.10;17.50;;;;;;;6.98;80.88;98926.40;225898;1278;24266;-76
2023/04/17 01:43:04;;;;;;;21.60;17.50;;;;;;;6.86;80.50;98926.73;225862;1275;22532;-76
2023/04/17 01:48:07;;;;;;;21.40;17.60;;;;;;;6.75;80.72;98925.95;225890;1278;22536;-77
2023/04/17 01:53:09;;;;;;;21.10;17.30;;;;;;;6.64;81.00;98919.55;225756;1272;25311;-77
2023/04/17 01:58:11;;;;;;;24.20;18.50;;;;;;;6.54;81.29;98922.04;225814;1275;22518;-77
2023/04/17 02:03:13;;;;;;;23.80;18.70;;;;;;;6.46;81.23;98921.02;225607;1277;25433;-77
2023/04/17 02:08:15;;;;;;;23.00;18.40;;;;;;;6.40;81.77;98923.20;225426;1276;22684;-76
2023/04/17 02:13:18;;;;;;;26.10;19.90;;;;;;;6.37;81.75;98926.11;225924;1277;24278;-77
2023/04/17 02:18:20;;;;;;;28.10;20.70;;;;;;;6.34;82.14;98928.73;225777;1274;24247;-76
2023/04/17 02:23:21;;;;;;;25.30;19.80;;;;;;;6.31;81.99;98932.15;225951;1276;22517;-76
2023/04/17 02:28:24;;;;;;;21.40;17.50;;;;;;;6.27;82.27;98936.27;225892;1278;22608;-76
2023/04/17 02:33:26;;;;;;;24.10;19.50;;;;;;;6.21;82.13;98931.13;225822;1278;23292;-76
2023/04/17 02:38:29;;;;;;;24.30;19.10;;;;;;;6.14;82.09;98932.14;225907;1275;22531;-76
2023/04/17 02:43:31;;;;;;;23.80;18.00;;;;;;;6.07;82.20;98937.64;225899;1278;22540;-76
2023/04/17 02:48:33;;;;;;;25.60;20.50;;;;;;;6.01;82.34;98942.04;225839;1278;22520;-77
2023/04/17 02:53:35;;;;;;;26.10;20.50;;;;;;;5.96;82.93;98947.77;225855;1278;22525;-77
2023/04/17 02:58:38;;;;;;;25.30;20.00;;;;;;;5.91;82.70;98951.67;225675;1276;22527;-76
2023/04/17 03:03:41;;;;;;;27.40;22.00;;;;;;;5.82;82.80;98948.81;225945;1272;24238;-76
2023/04/17 03:08:46;;;;;;;27.80;20.70;;;;;;;5.77;82.97;98947.48;225649;1278;22537;-76
2023/04/17 03:13:49;;;;;;;25.20;20.20;;;;;;;5.73;83.00;98951.35;225731;1278;22526;-76
2023/04/17 03:18:51;;;;;;;29.70;22.20;;;;;;;5.67;83.26;98955.01;225738;1278;22739;-78
2023/04/17 03:23:53;;;;;;;28.50;22.00;;;;;;;5.62;83.27;98953.27;225813;1278;22646;-76
2023/04/17 03:28:56;;;;;;;28.80;22.50;;;;;;;5.64;83.66;98952.71;225913;1278;24311;-76
2023/04/17 03:33:59;;;;;;;27.80;21.30;;;;;;;5.67;83.59;98947.70;225762;1278;24326;-76
2023/04/17 03:39:02;;;;;;;30.70;22.70;;;;;;;5.72;83.78;98952.52;225723;1278;22541;-77
2023/04/17 03:44:04;;;;;;;28.90;22.40;;;;;;;5.74;83.73;98962.63;225689;1278;22520;-77
2023/04/17 03:49:07;;;;;;;29.60;23.30;;;;;;;5.73;83.70;98968.15;225904;1276;23029;-76
2023/04/17 03:54:09;;;;;;;29.30;22.80;;;;;;;5.70;84.08;98969.77;225700;1278;22524;-77
2023/04/17 03:59:11;;;;;;;33.20;25.40;;;;;;;5.70;84.07;98978.39;225686;1277;22540;-77
2023/04/17 04:04:16;;;;;;;33.30;25.90;;;;;;;5.71;84.15;98983.81;225838;1276;22539;-77
2023/04/17 04:09:26;;;;;;;34.40;26.00;;;;;;;5.74;84.11;98983.34;225631;1278;22508;-77
2023/04/17 04:14:28;;;;;;;33.50;26.60;;;;;;;5.81;84.50;98984.44;225562;1278;22530;-77
2023/04/17 04:19:30;;;;;;;38.30;28.00;;;;;;;5.89;84.59;98983.84;225802;1278;25533;-77
2023/04/17 04:24:34;;;;;;;37.80;27.80;;;;;;;5.96;84.51;98982.77;225744;1277;22517;-76
2023/04/17 04:29:37;;;;;;;35.10;27.40;;;;;;;6.01;84.19;98990.97;225725;1277;22626;-76
2023/04/17 04:34:43;;;;;;;36.30;27.70;;;;;;;6.08;84.68;98994.66;225737;1276;22543;-75
2023/04/17 04:39:46;;;;;;;36.80;27.80;;;;;;;6.17;84.42;99003.92;225697;1279;22537;-76
2023/04/17 04:44:49;;;;;;;42.10;30.20;;;;;;;6.28;84.69;99003.64;225716;1278;22656;-76
2023/04/17 04:49:52;;;;;;;38.40;28.50;;;;;;;6.40;84.82;98996.78;225774;1278;22531;-76
2023/04/17 04:54:55;;;;;;;36.30;27.20;;;;;;;6.53;84.82;99000.29;225837;1278;22527;-76
2023/04/17 04:59:58;;;;;;;40.40;30.40;;;;;;;6.65;84.88;99005.77;225795;1278;22552;-76
2023/04/17 05:05:09;;;;;;;39.40;30.40;;;;;;;6.83;84.79;99007.41;225693;1278;22524;-76
2023/04/17 05:10:12;;;;;;;39.60;29.50;;;;;;;7.03;84.72;99013.73;225590;1278;22572;-77
2023/04/17 05:15:19;;;;;;;38.90;28.40;;;;;;;7.21;84.47;99016.63;225799;1278;22539;-77
2023/04/17 05:20:22;;;;;;;36.90;28.60;;;;;;;7.32;84.28;99016.64;225857;1275;22531;-76
2023/04/17 05:25:27;;;;;;;41.10;29.20;;;;;;;7.41;84.12;99020.55;225748;1277;22536;-77
2023/04/17 05:30:30;;;;;;;41.30;29.40;;;;;;;7.48;83.71;99023.14;225860;1278;22660;-76
2023/04/17 05:35:42;;;;;;;40.90;28.40;;;;;;;7.52;83.92;99027.98;225611;1256;22653;-77
2023/04/17 05:40:45;;;;;;;47.30;32.30;;;;;;;7.57;83.67;99027.67;225760;1277;22827;-77
2023/04/17 05:45:47;;;;;;;47.80;32.40;;;;;;;7.68;83.88;99024.68;225795;1275;22575;-77
2023/04/17 05:50:50;;;;;;;45.40;32.20;;;;;;;7.89;83.79;99025.11;225628;1271;22534;-77
2023/04/17 05:55:52;;;;;;;47.80;32.70;;;;;;;8.11;83.53;99027.77;225483;1275;22536;-76
2023/04/17 06:00:55;;;;;;;51.30;34.50;;;;;;;8.33;83.88;99024.39;225433;1272;22666;-78
2023/04/17 06:05:58;;;;;;;59.20;36.50;;;;;;;8.49;83.56;99023.78;225393;1256;25258;-76
2023/04/17 06:11:01;;;;;;;56.50;35.90;;;;;;;8.67;83.10;99032.68;225258;1259;22540;-75
2023/04/17 06:16:04;;;;;;;49.80;33.80;;;;;;;8.82;82.97;99037.02;224907;1258;145795;-74
2023/04/17 06:21:07;;;;;;;50.00;34.20;;;;;;;8.95;82.64;99036.04;225201;1261;138728;-74
2023/04/17 06:26:11;;;;;;;50.60;32.90;;;;;;;9.08;82.57;99038.65;224920;1265;139761;-74
2023/04/17 06:31:14;;;;;;;51.20;33.00;;;;;;;9.29;82.39;99038.34;225149;1266;139790;-74
2023/04/17 06:36:16;;;;;;;46.70;30.70;;;;;;;9.61;82.44;99043.89;225252;1268;22535;-73
2023/04/17 06:41:29;;;;;;;42.80;31.40;;;;;;;9.98;82.67;99052.81;225322;1260;138771;-74
2023/04/17 06:46:31;;;;;;;43.10;30.60;;;;;;;10.37;82.08;99055.56;225211;1259;138860;-75
2023/04/17 06:51:37;;;;;;;44.40;30.70;;;;;;;10.71;81.78;99058.76;225161;1260;139975;-75
2023/04/17 06:56:39;;;;;;;47.90;31.80;;;;;;;10.91;80.95;99057.45;225122;1260;138898;-75
2023/04/17 07:01:41;;;;;;;45.40;31.40;;;;;;;10.82;80.41;99055.50;225213;1265;139731;-74
2023/04/17 07:06:43;;;;;;;47.80;31.70;;;;;;;10.82;80.45;99057.80;225237;1257;139434;-75
2023/04/17 07:11:46;;;;;;;49.10;31.90;;;;;;;10.87;80.23;99064.25;225256;1268;22539;-74
2023/04/17 07:16:48;;;;;;;47.60;31.00;;;;;;;10.83;79.99;99069.91;225146;1257;138488;-74
2023/04/17 07:21:50;;;;;;;43.80;30.80;;;;;;;10.75;80.14;99075.09;225205;1274;139185;-74
2023/04/17 07:26:52;;;;;;;45.40;30.30;;;;;;;10.75;79.97;99072.98;225200;1268;139020;-74
2023/04/17 07:31:54;;;;;;;46.80;31.50;;;;;;;10.83;79.86;99070.91;225232;1257;139173;-74
2023/04/17 07:36:57;;;;;;;45.10;30.00;;;;;;;10.97;79.87;99081.80;225235;1268;140027;-74
2023/04/17 07:42:01;;;;;;;43.50;29.60;;;;;;;11.08;79.58;99086.59;225378;1258;22535;-74
2023/04/17 07:47:03;;;;;;;44.10;29.80;;;;;;;11.14;79.56;99094.50;225147;1275;139330;-74
2023/04/17 07:52:05;;;;;;;38.60;28.70;;;;;;;11.16;79.59;99103.27;225251;1260;138896;-74
2023/04/17 07:57:07;;;;;;;44.50;29.60;;;;;;;11.18;79.78;99105.63;225096;1263;139268;-73
2023/04/17 08:02:09;;;;;;;41.80;29.10;;;;;;;11.23;79.56;99100.45;225004;1262;139837;-74
2023/04/17 08:07:11;;;;;;;39.00;28.20;;;;;;;11.61;79.78;99106.31;225246;1273;139145;-73
2023/04/17 08:12:14;;;;;;;36.90;27.80;;;;;;;12.05;79.40;99104.77;225363;1259;22520;-74
2023/04/17 08:17:19;;;;;;;38.20;28.20;;;;;;;12.41;79.13;99104.42;225303;1264;139646;-74
2023/04/17 08:22:23;;;;;;;38.70;28.70;;;;;;;12.66;78.29;99107.89;225296;1262;138762;-74
2023/04/17 08:27:25;;;;;;;38.20;28.50;;;;;;;12.69;77.72;99109.09;225244;1278;139551;-74
2023/04/17 08:32:27;;;;;;;38.60;28.40;;;;;;;12.69;77.55;99105.18;225176;1275;138849;-74
2023/04/17 08:37:30;;;;;;;37.00;27.80;;;;;;;12.75;77.62;99109.02;225194;1262;139034;-77
2023/04/17 08:42:36;;;;;;;37.00;29.00;;;;;;;12.81;77.28;99108.69;225086;1262;139032;-75
2023/04/17 08:47:41;;;;;;;36.70;29.80;;;;;;;13.05;77.41;99104.54;225072;1266;22527;-75
2023/04/17 08:52:46;;;;;;;35.50;28.10;;;;;;;13.15;76.85;99107.34;225125;1271;139252;-74
2023/04/17 08:58:02;;;;;;;33.40;26.80;;;;;;;13.40;77.11;99109.11;224773;1260;139145;-75
2023/04/17 09:03:07;;;;;;;34.90;27.60;;;;;;;13.82;77.03;99106.92;225175;1259;138965;-76
2023/04/17 09:08:12;;;;;;;35.00;27.70;;;;;;;13.83;75.97;99103.25;225299;1269;139491;-74
2023/04/17 09:13:23;;;;;;;30.00;25.60;;;;;;;13.79;76.17;99105.13;224956;1262;138997;-75
2023/04/17 09:18:29;;;;;;;30.90;27.20;;;;;;;13.88;76.28;99093.48;225300;1275;22681;-75
2023/04/17 09:23:54;;;;;;;32.80;27.00;;;;;;;13.87;75.79;99096.35;224998;1276;138441;-75
2023/04/17 09:29:09;;;;;;;29.10;25.10;;;;;;;13.87;76.06;99097.23;225056;1268;138961;-75
2023/04/17 09:34:14;;;;;;;28.50;23.20;;;;;;;13.93;75.75;99101.60;225287;1278;139647;-74
2023/04/17 09:39:19;;;;;;;27.80;22.60;;;;;;;14.07;75.77;99097.33;225347;1275;138875;-74
2023/04/17 09:44:27;;;;;;;25.50;21.80;;;;;;;14.29;75.49;99083.23;225379;1278;139871;-74
2023/04/17 09:49:33;;;;;;;25.50;21.70;;;;;;;14.28;74.72;99081.52;225125;1277;139114;-74
2023/04/17 09:54:38;;;;;;;25.70;21.90;;;;;;;14.27;74.84;99082.09;225156;1263;138970;-80
2023/04/17 09:59:46;;;;;;;23.00;20.00;;;;;;;14.35;75.01;99072.36;225204;1262;22543;-75
2023/04/17 10:04:48;;;;;;;22.20;19.60;;;;;;;14.60;75.09;99069.92;225246;1262;138611;-75
2023/04/17 10:09:50;;;;;;;25.10;20.20;;;;;;;14.72;74.80;99068.80;225273;1276;139112;-75
2023/04/17 10:14:53;;;;;;;21.70;18.60;;;;;;;14.83;74.40;99069.80;225205;1259;139183;-75
2023/04/17 10:20:18;;;;;;;23.40;19.90;;;;;;;14.93;73.95;99066.71;225031;1262;138993;-75
2023/04/17 10:25:28;;;;;;;21.00;18.20;;;;;;;14.88;73.66;99064.02;224710;1279;149097;-75
2023/04/17 10:30:52;;;;;;;21.90;18.40;;;;;;;14.94;73.39;99057.45;225364;1269;25553;-80
2023/04/17 10:35:56;;;;;;;20.60;17.60;;;;;;;15.14;73.38;99056.69;225312;1274;24261;-77
2023/04/17 10:41:01;;;;;;;17.90;16.00;;;;;;;15.40;73.19;99050.06;225199;1260;138839;-77
2023/04/17 10:46:13;;;;;;;14.10;12.40;;;;;;;15.67;72.18;99043.76;225109;1267;139316;-78
2023/04/17 10:51:28;;;;;;;13.40;11.40;;;;;;;16.00;70.84;99036.82;225181;1266;138833;-77
2023/04/17 10:56:37;;;;;;;12.90;11.40;;;;;;;16.25;69.89;99033.96;225303;1270;139899;-76
2023/04/17 11:01:56;;;;;;;11.70;10.20;;;;;;;16.30;68.97;99034.66;225198;1260;138711;-77
2023/04/17 11:06:59;;;;;;;13.60;11.30;;;;;;;16.20;67.81;99030.96;224938;1278;138440;-77
2023/04/17 11:12:02;;;;;;;13.10;9.30;;;;;;;16.20;68.08;99023.13;225241;1278;22592;-78
2023/04/17 11:17:04;;;;;;;15.00;13.10;;;;;;;16.27;67.81;99029.23;225359;1278;137035;-76
2023/04/17 11:22:08;;;;;;;13.60;11.40;;;;;;;16.10;67.06;99022.23;225262;1269;138051;-77
2023/04/17 11:27:10;;;;;;;12.80;10.90;;;;;;;15.83;67.21;99016.20;225062;1275;139577;-79
2023/04/17 11:32:12;;;;;;;12.40;11.10;;;;;;;15.53;67.04;99035.91;225146;1262;138932;-77
2023/04/17 11:37:15;;;;;;;13.00;11.00;;;;;;;15.21;67.44;99035.45;224927;1261;138983;-77
2023/04/17 11:42:26;;;;;;;13.60;11.30;;;;;;;14.95;68.25;99033.08;225438;1276;22548;-76
2023/04/17 11:47:28;;;;;;;13.10;10.90;;;;;;;14.65;68.52;99033.42;225101;1261;138593;-78
2023/04/17 11:52:31;;;;;;;12.80;11.20;;;;;;;14.38;69.24;99036.54;225100;1264;139324;-76
2023/04/17 11:57:42;;;;;;;17.30;13.90;;;;;;;14.14;69.45;99039.32;225295;1257;140013;-76
2023/04/17 12:02:44;;;;;;;14.20;12.70;;;;;;;14.00;70.34;99042.55;225061;1275;138846;-76
2023/04/17 12:07:46;;;;;;;14.20;12.50;;;;;;;13.88;70.63;99048.27;225131;1256;138853;-75
2023/04/17 12:12:48;;;;;;;12.80;10.70;;;;;;;13.77;70.81;99050.00;225133;1257;138828;-76
2023/04/17 12:17:50;;;;;;;10.30;8.70;;;;;;;13.75;71.06;99051.39;224991;1257;22653;-76
2023/04/17 12:22:52;;;;;;;12.70;10.50;;;;;;;13.74;71.05;99054.82;225252;1256;138896;-75
2023/04/17 12:27:57;;;;;;;12.70;10.10;;;;;;;13.68;71.26;99053.70;225202;1278;139584;-75
2023/04/17 12:33:00;;;;;;;10.50;8.70;;;;;;;13.65;71.12;99054.42;224967;1279;138930;-75
2023/04/17 12:38:02;;;;;;;10.30;8.40;;;;;;;13.68;71.18;99051.56;225282;1274;139226;-75
2023/04/17 12:43:07;;;;;;;11.50;9.40;;;;;;;13.78;71.26;99049.70;225300;1274;139609;-75
2023/04/17 12:48:10;;;;;;;13.30;9.60;;;;;;;13.94;71.42;99050.47;225400;1257;22533;-76
2023/04/17 12:53:13;;;;;;;9.70;7.80;;;;;;;14.06;71.28;99047.91;225319;1274;138469;-77
2023/04/17 12:58:15;;;;;;;8.60;7.50;;;;;;;14.14;71.08;99052.98;225366;1270;138671;-78
2023/04/17 13:03:17;;;;;;;10.60;8.00;;;;;;;14.19;70.34;99055.77;225231;1264;138600;-78
2023/04/17 13:08:20;;;;;;;7.40;6.60;;;;;;;14.20;70.17;99058.50;225069;1273;139062;-78
2023/04/17 13:13:22;;;;;;;10.80;8.50;;;;;;;14.19;70.25;99057.92;225105;1262;138610;-76
2023/04/17 13:18:25;;;;;;;10.50;8.70;;;;;;;14.20;70.75;99057.97;225356;1257;23259;-76
2023/04/17 13:23:27;;;;;;;13.90;10.40;;;;;;;14.22;70.59;99060.84;225112;1273;138486;-77
2023/04/17 13:28:29;;;;;;;11.90;10.70;;;;;;;14.19;70.98;99064.47;225340;1260;138695;-77
2023/04/17 13:33:31;;;;;;;13.00;10.40;;;;;;;14.19;71.36;99062.79;225254;1277;138854;-78
2023/04/17 13:38:33;;;;;;;12.30;10.60;;;;;;;14.20;71.40;99064.35;225382;1263;139168;-77
2023/04/17 13:43:35;;;;;;;12.50;10.20;;;;;;;14.18;71.52;99062.88;225288;1279;140537;-78
2023/04/17 13:48:38;;;;;;;11.20;9.90;;;;;;;14.30;72.02;99061.53;225301;1276;139463;-78
2023/04/17 13:53:40;;;;;;;12.40;9.50;;;;;;;14.46;71.85;99057.45;225361;1273;22583;-76
2023/04/17 13:58:43;;;;;;;12.00;9.30;;;;;;;14.69;71.99;99056.33;225288;1268;139232;-76
2023/04/17 14:03:46;;;;;;;12.10;10.00;;;;;;;14.93;71.68;99058.80;225402;1277;22596;-78
2023/04/17 14:08:48;;;;;;;11.10;9.30;;;;;;;15.13;71.37;99053.58;225566;1276;22543;-77
2023/04/17 14:13:50;;;;;;;11.40;10.20;;;;;;;15.36;70.85;99057.38;225837;1267;22531;-77
2023/04/17 14:18:52;;;;;;;13.90;11.10;;;;;;;15.45;70.33;99053.56;225630;1259;22534;-77
2023/04/17 14:23:55;;;;;;;10.10;8.80;;;;;;;15.29;70.23;99055.94;225812;1274;22532;-79
2023/04/17 14:28:57;;;;;;;10.20;7.50;;;;;;;14.94;70.33;99053.03;225801;1276;22556;-78
2023/04/17 14:33:59;;;;;;;9.70;8.00;;;;;;;14.56;70.93;99048.48;225792;1279;22747;-77
2023/04/17 14:39:01;;;;;;;9.30;8.00;;;;;;;14.24;71.49;99050.70;225769;1276;22540;-77
2023/04/17 14:44:04;;;;;;;10.70;8.90;;;;;;;13.92;71.96;99063.58;225730;1275;22555;-76
2023/04/17 14:49:07;;;;;;;9.50;8.00;;;;;;;13.72;72.64;99062.20;225675;1275;22520;-76
2023/04/17 14:54:09;;;;;;;9.30;7.20;;;;;;;13.57;73.14;99062.16;225540;1279;22538;-78
2023/04/17 14:59:11;;;;;;;6.80;5.40;;;;;;;13.44;73.29;99066.73;225583;1278;22559;-79
2023/04/17 15:04:13;;;;;;;6.30;5.40;;;;;;;13.35;73.04;99070.17;225857;1277;22542;-77
2023/04/17 15:09:16;;;;;;;5.80;4.60;;;;;;;13.24;72.95;99068.59;225799;1278;22574;-78
2023/04/17 15:14:18;;;;;;;6.30;4.60;;;;;;;13.09;72.23;99072.69;225799;1274;22523;-78
2023/04/17 15:19:20;;;;;;;6.30;5.50;;;;;;;12.88;72.56;99065.92;225645;1279;22544;-80
2023/04/17 15:24:22;;;;;;;8.00;6.60;;;;;;;12.75;73.15;99061.85;225815;1276;22530;-79
2023/04/17 15:29:24;;;;;;;9.00;5.90;;;;;;;12.64;73.74;99059.98;225664;1277;22519;-79
2023/04/17 15:34:26;;;;;;;8.20;6.80;;;;;;;12.57;74.05;99065.86;225776;1275;23386;-79
2023/04/17 15:39:28;;;;;;;10.40;8.40;;;;;;;12.52;74.40;99060.85;225711;1279;22619;-78
2023/04/17 15:44:32;;;;;;;11.90;9.50;;;;;;;12.51;74.13;99060.67;225685;1277;25414;-78
2023/04/17 15:49:34;;;;;;;14.90;11.30;;;;;;;12.49;74.52;99061.39;225763;1279;23089;-79
2023/04/17 15:54:36;;;;;;;13.80;9.70;;;;;;;12.44;74.81;99066.34;225797;1279;22552;-78
2023/04/17 15:59:38;;;;;;;13.70;9.60;;;;;;;12.36;75.37;99066.84;225874;1279;24290;-79
2023/04/17 16:04:42;;;;;;;14.20;10.50;;;;;;;12.24;75.77;99065.16;225852;1277;22524;-79
2023/04/17 16:09:46;;;;;;;14.30;10.90;;;;;;;12.13;76.11;99063.48;225775;1275;22568;-77
2023/04/17 16:14:48;;;;;;;17.30;13.30;;;;;;;12.08;76.54;99062.58;225742;1278;22551;-77
2023/04/17 16:19:51;;;;;;;15.80;12.40;;;;;;;12.04;76.50;99063.64;225736;1276;22526;-78
2023/04/17 16:24:53;;;;;;;16.20;12.50;;;;;;;11.97;76.42;99070.07;225779;1278;22527;-79
2023/04/17 16:29:55;;;;;;;14.80;12.00;;;;;;;11.91;76.75;99074.28;225590;1279;22549;-78
2023/04/17 16:34:57;;;;;;;15.30;12.10;;;;;;;11.86;76.72;99071.91;225802;1277;22620;-78
2023/04/17 16:40:03;;;;;;;16.50;13.70;;;;;;;11.82;76.88;99076.85;225389;1279;22538;-76
2023/04/17 16:45:07;;;;;;;21.60;16.40;;;;;;;11.77;77.17;99081.05;225364;1279;22563;-79
2023/04/17 16:50:10;;;;;;;23.80;16.00;;;;;;;11.71;77.24;99081.66;225844;1277;22540;-78
2023/04/17 16:55:15;;;;;;;19.70;15.00;;;;;;;11.62;77.38;99087.23;225799;1276;22523;-78
2023/04/17 17:00:18;;;;;;;18.20;13.10;;;;;;;11.55;77.81;99093.88;225658;1279;22565;-77
2023/04/17 17:05:21;;;;;;;20.60;14.90;;;;;;;11.46;78.12;99094.58;225634;1279;23782;-78
2023/04/17 17:10:23;;;;;;;15.20;12.20;;;;;;;11.36;78.34;99096.86;225697;1279;24267;-78
2023/04/17 17:15:25;;;;;;;16.40;12.70;;;;;;;11.29;78.54;99097.50;225784;1277;22548;-77
2023/04/17 17:20:27;;;;;;;19.80;12.50;;;;;;;11.23;79.10;99098.34;225779;1274;22537;-79
2023/04/17 17:25:29;;;;;;;17.60;14.10;;;;;;;11.20;79.28;99102.07;225782;1277;23081;-79
2023/04/17 17:30:31;;;;;;;17.90;13.70;;;;;;;11.15;79.43;99107.28;225785;1278;24935;-78
2023/04/17 17:35:33;;;;;;;18.70;14.20;;;;;;;11.08;79.76;99108.46;225792;1279;22534;-77
2023/04/17 17:40:35;;;;;;;20.20;16.00;;;;;;;11.01;80.11;99115.52;225736;1275;22547;-79
2023/04/17 17:45:38;;;;;;;21.20;16.40;;;;;;;10.93;80.43;99122.95;225814;1278;26533;-78
2023/04/17 17:50:41;;;;;;;24.20;18.50;;;;;;;10.85;80.57;99119.16;225809;1279;22530;-77
2023/04/17 17:55:52;;;;;;;25.20;19.00;;;;;;;10.77;80.84;99120.96;225624;1279;22577;-77
2023/04/17 18:00:54;;;;;;;;;;;;;;;10.69;81.17;99125.27;225861;1275;22562;-77
2023/04/17 18:05:55;;;;;;;23.10;16.60;;;;;;;10.62;81.74;99126.63;225643;1275;22541;-77
2023/04/17 18:11:00;;;;;;;24.30;16.10;;;;;;;10.54;81.87;99130.36;225568;1279;22582;-79
2023/04/17 18:16:03;;;;;;;18.80;13.80;;;;;;;10.47;82.25;99137.89;225688;1278;22554;-78
2023/04/17 18:21:07;;;;;;;22.10;16.70;;;;;;;10.40;82.38;99146.87;225810;1279;22530;-77
2023/04/17 18:26:09;;;;;;;21.20;16.30;;;;;;;10.33;82.55;99152.64;225646;1277;22648;-79
2023/04/17 18:31:11;;;;;;;23.80;17.00;;;;;;;10.26;83.04;99153.05;225703;1273;22534;-78
2023/04/17 18:36:13;;;;;;;22.90;15.50;;;;;;;10.20;83.13;99156.73;225645;1278;22527;-79
2023/04/17 18:41:15;;;;;;;22.00;15.40;;;;;;;10.16;83.59;99156.76;225868;1277;22681;-78
2023/04/17 18:46:17;;;;;;;22.80;16.30;;;;;;;10.12;83.57;99158.66;225687;1279;22596;-78
2023/04/17 18:51:20;;;;;;;25.30;15.20;;;;;;;10.06;83.74;99156.17;225806;1272;22541;-79
2023/04/17 18:56:25;;;;;;;20.80;14.30;;;;;;;10.00;83.91;99158.84;225811;1273;22542;-79
2023/04/17 19:01:27;;;;;;;18.00;13.40;;;;;;;9.95;83.99;99160.13;225646;1278;22543;-78
2023/04/17 19:06:30;;;;;;;19.20;13.50;;;;;;;9.89;84.38;99154.30;225655;1275;22535;-77
2023/04/17 19:11:32;;;;;;;20.50;14.60;;;;;;;9.83;84.34;99162.64;225699;1273;22540;-78
2023/04/17 19:16:34;;;;;;;16.10;12.80;;;;;;;9.79;84.42;99165.83;225815;1278;22523;-79
2023/04/17 19:21:37;;;;;;;17.30;12.60;;;;;;;9.73;84.43;99163.26;225757;1274;23935;-79
2023/04/17 19:26:39;;;;;;;18.90;13.30;;;;;;;9.70;84.81;99164.39;225590;1279;22479;-79
2023/04/17 19:31:42;;;;;;;19.60;13.60;;;;;;;9.67;84.68;99163.25;225641;1279;22537;-78
2023/04/17 19:36:44;;;;;;;17.60;11.80;;;;;;;9.65;85.17;99163.85;225629;1279;22534;-79
2023/04/17 19:41:49;;;;;;;15.80;11.90;;;;;;;9.63;84.95;99162.13;225803;1275;22541;-79
2023/04/17 19:46:52;;;;;;;16.70;11.40;;;;;;;9.60;85.05;99158.48;225542;1279;22569;-79
2023/04/17 19:51:54;;;;;;;14.70;9.80;;;;;;;9.59;85.47;99152.15;225622;1278;24182;-79
2023/04/17 19:56:56;;;;;;;14.60;10.10;;;;;;;9.59;85.58;99153.02;225666;1279;22568;-78
2023/04/17 20:01:58;;;;;;;13.00;10.00;;;;;;;9.57;85.31;99151.47;225687;1279;22551;-79
2023/04/17 20:07:00;;;;;;;18.50;11.10;;;;;;;9.53;85.78;99155.77;225715;1279;22527;-79
2023/04/17 20:12:04;;;;;;;14.60;10.80;;;;;;;9.48;85.79;99149.91;225692;1279;22548;-80
2023/04/17 20:17:06;;;;;;;14.50;10.60;;;;;;;9.44;85.58;99146.16;225645;1279;22527;-80
2023/04/17 20:22:09;;;;;;;14.90;10.80;;;;;;;9.42;85.90;99148.16;225808;1275;22568;-79
2023/04/17 20:27:11;;;;;;;12.10;10.10;;;;;;;9.39;86.34;99150.33;225709;1279;22527;-78
2023/04/17 20:32:14;;;;;;;14.10;11.60;;;;;;;9.35;86.55;99150.58;225778;1275;25373;-77
2023/04/17 20:37:15;;;;;;;16.30;12.00;;;;;;;9.32;86.32;99148.65;225625;1278;22527;-78
2023/04/17 20:42:17;;;;;;;15.20;10.70;;;;;;;9.28;86.49;99146.61;225785;1279;22551;-78
2023/04/17 20:47:20;;;;;;;13.80;10.60;;;;;;;9.24;86.42;99145.44;225705;1278;22538;-77
2023/04/17 20:52:22;;;;;;;13.90;9.30;;;;;;;9.20;86.53;99149.37;225612;1277;22520;-77
2023/04/17 20:57:24;;;;;;;12.20;9.10;;;;;;;9.16;86.94;99150.36;225604;1279;22662;-77
2023/04/17 21:02:26;;;;;;;11.50;8.90;;;;;;;9.14;87.43;99149.23;225694;1277;23816;-77
2023/04/17 21:07:29;;;;;;;19.90;11.40;;;;;;;9.12;87.37;99150.16;225856;1277;22539;-78
2023/04/17 21:12:34;;;;;;;16.70;10.80;;;;;;;9.09;87.13;99151.15;225598;1274;23046;-77
2023/04/17 21:17:37;;;;;;;16.40;10.10;;;;;;;9.06;87.41;99151.15;225851;1279;22524;-77
2023/04/17 21:22:40;;;;;;;12.20;8.50;;;;;;;9.05;87.86;99152.73;225828;1277;22539;-77
2023/04/17 21:27:42;;;;;;;9.90;7.70;;;;;;;9.03;87.68;99148.68;225590;1277;25291;-75
2023/04/17 21:32:46;;;;;;;11.00;8.30;;;;;;;9.01;87.84;99142.73;225624;1279;22531;-76
2023/04/17 21:37:48;;;;;;;10.10;7.50;;;;;;;9.00;88.10;99140.28;225657;1279;24290;-76
2023/04/17 21:42:51;;;;;;;11.00;7.90;;;;;;;8.97;88.28;99142.46;225791;1275;22582;-76
2023/04/17 21:47:53;;;;;;;11.80;8.00;;;;;;;8.94;87.93;99142.79;225612;1273;22641;-76
2023/04/17 21:52:57;;;;;;;11.60;7.50;;;;;;;8.94;88.53;99141.27;225807;1275;22584;-78
2023/04/17 21:57:59;;;;;;;9.30;5.90;;;;;;;8.94;88.63;99140.75;225801;1275;22528;-76
2023/04/17 22:03:02;;;;;;;8.30;6.40;;;;;;;8.94;88.27;99137.78;225863;1277;22530;-76
2023/04/17 22:08:04;;;;;;;7.80;5.60;;;;;;;8.95;88.94;99138.17;225703;1275;22557;-76
2023/04/17 22:13:06;;;;;;;8.70;6.70;;;;;;;8.95;88.52;99137.27;225712;1278;22539;-75
2023/04/17 22:18:08;;;;;;;9.40;6.10;;;;;;;8.94;88.97;99139.98;225688;1275;25004;-75
2023/04/17 22:23:10;;;;;;;6.90;5.50;;;;;;;8.93;88.61;99140.64;225600;1277;161428;-76
2023/04/17 22:28:11;;;;;;;7.50;5.60;;;;;;;8.94;88.58;99141.64;225726;1275;22541;-76
2023/04/17 22:33:14;;;;;;;6.70;5.40;;;;;;;8.92;88.52;99142.86;225723;1276;22542;-76
2023/04/17 22:38:17;;;;;;;10.80;7.70;;;;;;;8.90;88.57;99144.30;225690;1274;22517;-76
2023/04/17 22:43:19;;;;;;;9.00;7.50;;;;;;;8.89;88.69;99139.33;225776;1277;22587;-75
2023/04/17 22:48:22;;;;;;;7.70;6.30;;;;;;;8.87;88.62;99144.54;225815;1274;25230;-75
2023/04/17 22:53:25;;;;;;;8.30;6.70;;;;;;;8.83;88.85;99143.88;225790;1279;22526;-75
2023/04/17 22:58:30;;;;;;;9.40;7.60;;;;;;;8.81;88.91;99142.52;225731;1277;22531;-76
2023/04/17 23:03:33;;;;;;;9.20;6.60;;;;;;;8.78;88.57;99140.35;225703;1274;27060;-76
2023/04/17 23:08:36;;;;;;;9.30;6.90;;;;;;;8.75;88.76;99139.69;225796;1272;24236;-74